createdAt,value
2022-08-21T00:00:17.722Z,21.50
2022-08-21T00:02:50.801Z,21.50
2022-08-21T00:05:17.754Z,21.49
2022-08-21T00:07:44.513Z,21.49
2022-08-21T00:10:12.355Z,21.42
2022-08-21T00:12:39.692Z,21.45
2022-08-21T00:15:08.625Z,21.44
2022-08-21T00:17:35.672Z,21.45
2022-08-21T00:20:04.309Z,21.42
2022-08-21T00:22:30.967Z,21.45
2022-08-21T00:24:57.617Z,21.43
2022-08-21T00:27:24.185Z,21.41
2022-08-21T00:29:50.777Z,21.40
2022-08-21T00:32:22.617Z,21.34
2022-08-21T00:34:49.189Z,21.35
2022-08-21T00:37:15.858Z,21.33
2022-08-21T00:39:42.581Z,21.33
2022-08-21T00:42:09.417Z,21.38
2022-08-21T00:44:36.174Z,21.40
2022-08-21T00:47:02.964Z,21.41
2022-08-21T00:49:29.543Z,21.44
2022-08-21T00:52:01.958Z,21.38
2022-08-21T00:54:32.265Z,21.38
2022-08-21T00:57:05.843Z,21.50
2022-08-21T00:59:38.352Z,21.42
2022-08-21T01:02:08.193Z,21.43
2022-08-21T01:04:35.505Z,21.40
2022-08-21T01:07:02.401Z,21.37
2022-08-21T01:09:29.146Z,21.30
2022-08-21T01:11:55.792Z,21.30
2022-08-21T01:14:23.773Z,21.34
2022-08-21T01:16:53.897Z,21.36
2022-08-21T01:19:22.360Z,21.37
2022-08-21T01:21:49.524Z,21.32
2022-08-21T01:24:16.195Z,21.29
2022-08-21T01:26:45.055Z,21.32
2022-08-21T01:29:23.943Z,21.30
2022-08-21T01:31:50.679Z,21.29
2022-08-21T01:34:18.066Z,21.29
2022-08-21T01:36:45.608Z,21.32
2022-08-21T01:39:13.187Z,21.31
2022-08-21T01:41:39.870Z,21.33
2022-08-21T01:44:06.497Z,21.34
2022-08-21T01:46:33.387Z,21.34
2022-08-21T01:48:59.996Z,21.33
2022-08-21T01:51:26.653Z,21.27
2022-08-21T01:53:53.301Z,21.23
2022-08-21T01:56:20.071Z,21.16
2022-08-21T01:58:48.205Z,21.14
2022-08-21T02:01:15.010Z,21.11
2022-08-21T02:03:42.309Z,21.11
2022-08-21T02:06:15.968Z,21.08
2022-08-21T02:08:42.591Z,21.15
2022-08-21T02:11:09.194Z,21.11
2022-08-21T02:13:35.906Z,21.09
2022-08-21T02:16:02.702Z,21.15
2022-08-21T02:18:29.306Z,21.16
2022-08-21T02:20:56.798Z,21.11
2022-08-21T02:23:27.333Z,21.12
2022-08-21T02:26:06.271Z,21.08
2022-08-21T02:28:33.508Z,21.10
2022-08-21T02:31:00.322Z,21.09
2022-08-21T02:33:28.131Z,21.10
2022-08-21T02:35:55.525Z,21.10
2022-08-21T02:38:23.705Z,21.07
2022-08-21T02:40:51.998Z,21.03
2022-08-21T02:43:20.545Z,21.07
2022-08-21T02:45:48.405Z,21.04
2022-08-21T02:48:19.355Z,21.03
2022-08-21T02:50:48.900Z,20.98
2022-08-21T02:53:17.777Z,20.96
2022-08-21T02:55:49.763Z,20.86
2022-08-21T02:58:21.027Z,20.83
2022-08-21T03:00:48.067Z,20.89
2022-08-21T03:03:15.704Z,20.85
2022-08-21T03:05:42.879Z,20.88
2022-08-21T03:08:12.241Z,20.82
2022-08-21T03:10:41.461Z,20.86
2022-08-21T03:13:08.970Z,20.88
2022-08-21T03:15:35.939Z,20.93
2022-08-21T03:18:04.591Z,20.92
2022-08-21T03:20:32.025Z,20.82
2022-08-21T03:22:59.792Z,20.85
2022-08-21T03:25:40.068Z,20.90
2022-08-21T03:28:12.980Z,20.89
2022-08-21T03:30:42.224Z,20.82
2022-08-21T03:33:08.844Z,20.86
2022-08-21T03:35:39.027Z,20.87
2022-08-21T03:38:05.710Z,20.90
2022-08-21T03:40:32.678Z,20.94
2022-08-21T03:42:59.933Z,20.96
2022-08-21T03:45:27.000Z,20.98
2022-08-21T03:47:58.794Z,20.97
2022-08-21T03:50:27.850Z,20.98
2022-08-21T03:52:54.554Z,20.97
2022-08-21T03:55:21.256Z,20.99
2022-08-21T03:57:47.872Z,21.01
2022-08-21T04:00:15.997Z,20.96
2022-08-21T04:02:44.719Z,21.00
2022-08-21T04:05:14.103Z,20.98
2022-08-21T04:07:40.844Z,20.95
2022-08-21T04:10:08.574Z,20.99
2022-08-21T04:12:35.445Z,20.99
2022-08-21T04:15:03.063Z,20.98
2022-08-21T04:17:29.740Z,20.98
2022-08-21T04:19:56.364Z,21.01
2022-08-21T04:22:23.339Z,20.97
2022-08-21T04:24:50.838Z,21.01
2022-08-21T04:27:17.441Z,20.85
2022-08-21T04:29:44.016Z,20.95
2022-08-21T04:32:10.661Z,21.04
2022-08-21T04:34:37.428Z,21.08
2022-08-21T04:37:04.669Z,21.11
2022-08-21T04:39:31.172Z,21.00
2022-08-21T04:41:57.838Z,20.98
2022-08-21T04:44:24.580Z,21.02
2022-08-21T04:46:51.179Z,21.11
2022-08-21T04:49:17.812Z,21.11
2022-08-21T04:51:44.973Z,21.05
2022-08-21T04:54:21.056Z,20.98
2022-08-21T04:57:00.687Z,20.88
2022-08-21T04:59:41.858Z,20.99
2022-08-21T05:02:10.026Z,21.14
2022-08-21T05:04:40.514Z,21.22
2022-08-21T05:07:11.354Z,21.20
2022-08-21T05:09:39.169Z,21.18
2022-08-21T05:12:06.715Z,21.31
2022-08-21T05:14:34.045Z,21.23
2022-08-21T05:17:00.533Z,21.19
2022-08-21T05:19:27.639Z,21.21
2022-08-21T05:21:54.713Z,21.29
2022-08-21T05:24:21.437Z,21.36
2022-08-21T05:26:48.317Z,21.41
2022-08-21T05:29:16.522Z,21.47
2022-08-21T05:31:43.673Z,21.53
2022-08-21T05:34:10.325Z,21.56
2022-08-21T05:36:37.070Z,21.61
2022-08-21T05:39:04.471Z,21.73
2022-08-21T05:41:31.235Z,21.80
2022-08-21T05:44:00.974Z,21.91
2022-08-21T05:46:27.738Z,21.98
2022-08-21T05:48:54.391Z,22.08
2022-08-21T05:51:21.145Z,22.18
2022-08-21T05:53:48.467Z,22.31
2022-08-21T05:56:15.679Z,22.67
2022-08-21T05:58:43.129Z,23.01
2022-08-21T06:01:10.102Z,23.18
2022-08-21T06:03:39.767Z,23.27
2022-08-21T06:06:06.690Z,23.15
2022-08-21T06:08:33.637Z,23.12
2022-08-21T06:11:01.607Z,23.15
2022-08-21T06:13:29.397Z,23.35
2022-08-21T06:16:23.553Z,23.98
2022-08-21T06:18:50.598Z,24.39
2022-08-21T06:21:17.413Z,24.66
2022-08-21T06:23:44.769Z,24.35
2022-08-21T06:26:13.800Z,24.18
2022-08-21T06:28:42.054Z,24.56
2022-08-21T06:31:21.337Z,25.14
2022-08-21T06:33:48.905Z,25.11
2022-08-21T06:36:15.717Z,25.16
2022-08-21T06:38:50.866Z,25.37
2022-08-21T06:41:18.320Z,25.29
2022-08-21T06:43:51.583Z,25.11
2022-08-21T06:46:18.043Z,25.06
2022-08-21T06:48:44.645Z,25.05
2022-08-21T06:51:11.299Z,24.79
2022-08-21T06:53:37.987Z,25.28
2022-08-21T06:56:05.426Z,25.60
2022-08-21T06:58:32.056Z,25.66
2022-08-21T07:01:00.991Z,25.80
2022-08-21T07:03:32.468Z,26.39
2022-08-21T07:05:59.367Z,26.44
2022-08-21T07:08:27.897Z,26.53
2022-08-21T07:10:57.046Z,26.82
2022-08-21T07:13:24.317Z,27.01
2022-08-21T07:15:51.324Z,26.53
2022-08-21T07:18:18.117Z,26.30
2022-08-21T07:20:44.782Z,25.93
2022-08-21T07:23:27.418Z,25.59
2022-08-21T07:25:54.011Z,25.40
2022-08-21T07:28:20.836Z,25.55
2022-08-21T07:30:52.553Z,25.90
2022-08-21T07:33:19.197Z,25.90
2022-08-21T07:35:45.796Z,25.80
2022-08-21T07:38:12.394Z,25.43
2022-08-21T07:40:39.837Z,25.51
2022-08-21T07:43:06.457Z,25.51
2022-08-21T07:45:33.750Z,25.41
2022-08-21T07:48:00.342Z,25.26
2022-08-21T07:50:27.085Z,25.09
2022-08-21T07:52:53.811Z,24.90
2022-08-21T07:55:21.565Z,24.91
2022-08-21T07:57:48.921Z,24.86
2022-08-21T08:00:18.960Z,24.88
2022-08-21T08:02:52.726Z,24.87
2022-08-21T08:05:22.875Z,24.69
2022-08-21T08:07:49.679Z,24.75
2022-08-21T08:10:17.375Z,24.73
2022-08-21T08:12:45.289Z,25.14
2022-08-21T08:15:18.739Z,25.47
2022-08-21T08:17:45.410Z,25.98
2022-08-21T08:20:14.120Z,26.35
2022-08-21T08:22:42.315Z,26.71
2022-08-21T08:25:11.421Z,27.07
2022-08-21T08:27:38.497Z,27.18
2022-08-21T08:30:06.080Z,27.30
2022-08-21T08:32:32.893Z,27.47
2022-08-21T08:34:59.461Z,27.72
2022-08-21T08:37:27.762Z,27.68
2022-08-21T08:40:01.953Z,27.46
2022-08-21T08:42:37.985Z,27.17
2022-08-21T08:45:12.109Z,27.45
2022-08-21T08:47:50.720Z,27.54
2022-08-21T08:50:29.006Z,27.65
2022-08-21T08:53:02.959Z,27.55
2022-08-21T08:55:41.993Z,27.76
2022-08-21T08:58:18.000Z,27.90
2022-08-21T09:00:48.279Z,27.91
2022-08-21T09:03:16.538Z,28.14
2022-08-21T09:05:50.679Z,28.07
2022-08-21T09:08:41.902Z,28.26
2022-08-21T09:11:37.445Z,28.29
2022-08-21T09:14:07.036Z,28.27
2022-08-21T09:17:20.714Z,28.13
2022-08-21T09:20:11.158Z,28.04
2022-08-21T09:22:43.783Z,27.90
2022-08-21T09:25:23.992Z,27.88
2022-08-21T09:27:51.787Z,27.88
2022-08-21T09:30:20.380Z,27.81
2022-08-21T09:32:46.989Z,27.54
2022-08-21T09:35:20.756Z,27.55
2022-08-21T09:37:59.046Z,27.27
2022-08-21T09:40:45.500Z,27.10
2022-08-21T09:43:12.013Z,27.41
2022-08-21T09:45:40.453Z,27.49
2022-08-21T09:48:18.671Z,27.62
2022-08-21T09:50:46.045Z,27.72
2022-08-21T09:53:35.520Z,27.60
2022-08-21T09:56:35.638Z,27.45
2022-08-21T09:59:12.972Z,27.46
2022-08-21T10:01:45.600Z,27.57
2022-08-21T10:04:12.757Z,27.63
2022-08-21T10:06:39.738Z,27.77
2022-08-21T10:09:21.038Z,27.62
2022-08-21T10:12:13.604Z,27.44
2022-08-21T10:14:45.903Z,27.48
2022-08-21T10:17:24.477Z,27.55
2022-08-21T10:20:09.132Z,27.46
2022-08-21T10:22:50.221Z,27.54
2022-08-21T10:25:27.071Z,27.46
2022-08-21T10:27:56.326Z,27.54
2022-08-21T10:30:52.743Z,27.63
2022-08-21T10:33:19.308Z,27.41
2022-08-21T10:35:58.821Z,26.93
2022-08-21T10:39:02.634Z,26.70
2022-08-21T10:41:59.360Z,26.75
2022-08-21T10:44:47.311Z,26.89
2022-08-21T10:47:25.618Z,26.73
2022-08-21T10:50:11.492Z,26.50
2022-08-21T10:53:15.582Z,26.24
2022-08-21T10:55:49.279Z,26.05
2022-08-21T10:58:25.603Z,25.90
2022-08-21T11:00:57.258Z,25.78
2022-08-21T11:03:40.036Z,25.58
2022-08-21T11:06:30.866Z,25.49
2022-08-21T11:09:25.305Z,25.48
2022-08-21T11:11:59.499Z,25.41
2022-08-21T11:14:50.498Z,25.36
2022-08-21T11:17:22.404Z,25.30
2022-08-21T11:20:03.064Z,25.33
2022-08-21T11:22:38.623Z,25.36
2022-08-21T11:25:10.386Z,25.24
2022-08-21T11:27:50.003Z,25.42
2022-08-21T11:30:17.363Z,25.11
2022-08-21T11:33:18.213Z,25.14
2022-08-21T11:35:50.572Z,25.05
2022-08-21T11:38:27.843Z,24.91
2022-08-21T11:41:08.220Z,24.77
2022-08-21T11:43:37.890Z,24.66
2022-08-21T11:46:46.597Z,24.50
2022-08-21T11:49:22.396Z,24.18
2022-08-21T11:52:09.064Z,23.92
2022-08-21T11:55:01.920Z,23.67
2022-08-21T11:57:56.072Z,23.52
2022-08-21T12:00:56.933Z,23.35
2022-08-21T12:03:34.095Z,23.28
2022-08-21T12:06:08.586Z,23.16
2022-08-21T12:08:37.567Z,23.15
2022-08-21T12:11:10.237Z,23.13
2022-08-21T12:14:02.008Z,23.04
2022-08-21T12:16:40.679Z,23.02
2022-08-21T12:19:20.531Z,22.93
2022-08-21T12:21:58.994Z,22.93
2022-08-21T12:24:28.632Z,23.10
2022-08-21T12:26:57.737Z,23.05
2022-08-21T12:29:28.734Z,22.92
2022-08-21T12:32:21.261Z,22.90
2022-08-21T12:34:51.185Z,22.70
2022-08-21T12:37:23.509Z,22.66
2022-08-21T12:39:53.727Z,22.70
2022-08-21T12:42:25.692Z,22.69
2022-08-21T12:44:59.853Z,22.81
2022-08-21T12:47:44.425Z,22.78
2022-08-21T12:50:17.017Z,22.89
2022-08-21T12:53:20.626Z,22.81
2022-08-21T12:55:48.134Z,22.70
2022-08-21T12:58:23.424Z,22.81
2022-08-21T13:01:05.985Z,22.80
2022-08-21T13:03:37.795Z,22.70
2022-08-21T13:06:06.377Z,23.00
2022-08-21T13:08:40.100Z,22.98
2022-08-21T13:11:11.334Z,22.97
2022-08-21T13:13:46.824Z,23.04
2022-08-21T13:16:23.742Z,22.92
2022-08-21T13:18:58.455Z,23.00
2022-08-21T13:21:30.787Z,23.14
2022-08-21T13:24:38.845Z,23.42
2022-08-21T13:27:02.331Z,23.46
2022-08-21T13:29:32.143Z,23.60
2022-08-21T13:32:02.707Z,23.50
2022-08-21T13:34:37.734Z,23.44
2022-08-21T13:37:09.790Z,23.45
2022-08-21T13:39:36.499Z,23.54
2022-08-21T13:42:10.106Z,23.62
2022-08-21T13:44:38.174Z,23.64
2022-08-21T13:47:07.400Z,23.57
2022-08-21T13:49:38.325Z,23.65
2022-08-21T13:52:07.646Z,23.66
2022-08-21T13:54:38.113Z,23.73
2022-08-21T13:57:16.165Z,23.86
2022-08-21T13:59:42.779Z,23.82
2022-08-21T14:02:14.467Z,23.83
2022-08-21T14:04:55.295Z,23.73
2022-08-21T14:07:27.700Z,23.77
2022-08-21T14:09:55.854Z,23.98
2022-08-21T14:12:43.434Z,24.11
2022-08-21T14:15:14.312Z,24.13
2022-08-21T14:17:42.621Z,23.95
2022-08-21T14:20:13.190Z,24.13
2022-08-21T14:22:48.200Z,24.25
2022-08-21T14:25:20.728Z,24.43
2022-08-21T14:28:09.963Z,24.58
2022-08-21T14:30:43.530Z,24.51
2022-08-21T14:33:13.312Z,24.50
2022-08-21T14:35:40.454Z,24.68
2022-08-21T14:38:17.484Z,24.70
2022-08-21T14:40:48.847Z,24.73
2022-08-21T14:43:15.430Z,24.76
2022-08-21T14:45:42.083Z,24.63
2022-08-21T14:48:09.194Z,24.69
2022-08-21T14:50:36.015Z,24.89
2022-08-21T14:53:10.820Z,24.97
2022-08-21T14:55:58.636Z,24.97
2022-08-21T14:58:26.430Z,24.99
2022-08-21T15:00:54.988Z,24.96
2022-08-21T15:03:25.321Z,24.89
2022-08-21T15:05:52.316Z,24.85
2022-08-21T15:08:19.592Z,24.80
2022-08-21T15:11:08.650Z,24.91
2022-08-21T15:13:34.229Z,24.99
2022-08-21T15:16:01.053Z,25.17
2022-08-21T15:18:30.120Z,24.94
2022-08-21T15:20:57.304Z,25.17
2022-08-21T15:23:23.777Z,25.04
2022-08-21T15:25:51.394Z,25.12
2022-08-21T15:28:19.292Z,25.03
2022-08-21T15:30:46.874Z,25.35
2022-08-21T15:33:13.551Z,25.31
2022-08-21T15:35:41.079Z,25.33
2022-08-21T15:38:07.934Z,25.31
2022-08-21T15:40:39.032Z,25.10
2022-08-21T15:43:06.593Z,25.04
2022-08-21T15:45:34.644Z,25.01
2022-08-21T15:48:02.079Z,25.02
2022-08-21T15:50:30.162Z,25.08
2022-08-21T15:52:56.767Z,25.24
2022-08-21T15:55:24.571Z,25.21
2022-08-21T15:57:57.293Z,24.99
2022-08-21T16:00:25.580Z,24.86
2022-08-21T16:02:58.418Z,24.83
2022-08-21T16:05:25.165Z,24.75
2022-08-21T16:07:52.431Z,24.70
2022-08-21T16:10:22.221Z,24.64
2022-08-21T16:12:54.479Z,24.57
2022-08-21T16:15:21.728Z,24.48
2022-08-21T16:17:49.977Z,24.28
2022-08-21T16:20:25.449Z,24.19
2022-08-21T16:22:54.202Z,24.18
2022-08-21T16:25:21.733Z,24.05
2022-08-21T16:27:57.388Z,24.07
2022-08-21T16:30:26.605Z,23.95
2022-08-21T16:32:53.711Z,23.86
2022-08-21T16:35:21.347Z,23.80
2022-08-21T16:37:52.775Z,23.78
2022-08-21T16:40:20.668Z,23.73
2022-08-21T16:42:48.778Z,23.65
2022-08-21T16:45:18.352Z,23.58
2022-08-21T16:47:44.956Z,23.53
2022-08-21T16:50:15.949Z,23.48
2022-08-21T16:52:43.267Z,23.34
2022-08-21T16:55:09.960Z,23.16
2022-08-21T16:57:38.100Z,23.16
2022-08-21T17:00:11.564Z,23.13
2022-08-21T17:02:42.541Z,23.07
2022-08-21T17:05:13.778Z,23.05
2022-08-21T17:07:42.406Z,23.00
2022-08-21T17:10:10.961Z,22.91
2022-08-21T17:12:38.146Z,22.84
2022-08-21T17:15:06.599Z,22.79
2022-08-21T17:17:36.528Z,22.63
2022-08-21T17:20:04.490Z,22.47
2022-08-21T17:22:31.352Z,22.41
2022-08-21T17:24:58.048Z,22.27
2022-08-21T17:27:28.216Z,22.31
2022-08-21T17:29:56.106Z,22.27
2022-08-21T17:32:23.058Z,22.16
2022-08-21T17:34:49.693Z,22.13
2022-08-21T17:37:16.314Z,22.14
2022-08-21T17:39:43.054Z,22.20
2022-08-21T17:42:13.728Z,22.14
2022-08-21T17:44:43.468Z,22.18
2022-08-21T17:47:10.818Z,22.19
2022-08-21T17:49:37.573Z,22.19
2022-08-21T17:52:05.194Z,22.21
2022-08-21T17:54:31.812Z,22.20
2022-08-21T17:56:58.592Z,22.20
2022-08-21T17:59:25.996Z,22.26
2022-08-21T18:01:54.529Z,22.35
2022-08-21T18:04:21.113Z,22.40
2022-08-21T18:06:47.766Z,22.45
2022-08-21T18:09:14.427Z,22.46
2022-08-21T18:11:43.106Z,22.43
2022-08-21T18:14:10.875Z,22.38
2022-08-21T18:16:37.824Z,22.25
2022-08-21T18:19:09.227Z,22.28
2022-08-21T18:21:36.380Z,22.33
2022-08-21T18:24:03.196Z,22.32
2022-08-21T18:26:32.932Z,22.38
2022-08-21T18:29:01.573Z,22.37
2022-08-21T18:31:31.688Z,22.36
2022-08-21T18:34:00.990Z,22.33
2022-08-21T18:36:29.512Z,22.39
2022-08-21T18:39:13.610Z,22.35
2022-08-21T18:41:44.917Z,22.34
2022-08-21T18:44:13.884Z,22.47
2022-08-21T18:46:41.376Z,22.32
2022-08-21T18:49:07.968Z,22.33
2022-08-21T18:51:34.579Z,22.31
2022-08-21T18:54:01.331Z,22.31
2022-08-21T18:56:28.728Z,22.29
2022-08-21T18:58:58.318Z,22.27
2022-08-21T19:01:25.891Z,22.29
2022-08-21T19:03:52.827Z,22.26
2022-08-21T19:06:19.518Z,22.16
2022-08-21T19:08:46.104Z,22.17
2022-08-21T19:11:13.316Z,22.15
2022-08-21T19:13:39.854Z,22.14
2022-08-21T19:16:09.610Z,22.09
2022-08-21T19:18:39.980Z,22.04
2022-08-21T19:21:07.615Z,22.05
2022-08-21T19:23:35.151Z,22.02
2022-08-21T19:26:07.446Z,22.09
2022-08-21T19:28:38.132Z,22.13
2022-08-21T19:31:29.560Z,21.96
2022-08-21T19:34:18.910Z,21.88
2022-08-21T19:36:46.076Z,21.85
2022-08-21T19:39:17.938Z,21.84
2022-08-21T19:41:50.627Z,21.81
2022-08-21T19:44:21.401Z,21.82
2022-08-21T19:46:51.087Z,21.82
2022-08-21T19:49:21.207Z,21.83
2022-08-21T19:51:49.381Z,21.81
2022-08-21T19:54:20.678Z,21.79
2022-08-21T19:56:48.654Z,21.76
2022-08-21T19:59:18.358Z,21.92
2022-08-21T20:01:51.708Z,21.76
2022-08-21T20:04:19.444Z,21.71
2022-08-21T20:06:47.028Z,21.60
2022-08-21T20:09:14.792Z,21.44
2022-08-21T20:11:47.899Z,21.31
2022-08-21T20:14:18.093Z,21.39
2022-08-21T20:16:47.021Z,21.47
2022-08-21T20:19:13.684Z,21.49
2022-08-21T20:21:43.539Z,21.47
2022-08-21T20:24:14.865Z,21.46
2022-08-21T20:26:48.711Z,21.47
2022-08-21T20:29:16.963Z,21.48
2022-08-21T20:31:50.636Z,21.49
2022-08-21T20:34:17.523Z,21.53
2022-08-21T20:36:44.904Z,21.48
2022-08-21T20:39:14.560Z,21.48
2022-08-21T20:41:41.722Z,21.44
2022-08-21T20:44:12.700Z,21.29
2022-08-21T20:46:39.888Z,21.27
2022-08-21T20:49:09.285Z,21.24
2022-08-21T20:51:44.753Z,21.22
2022-08-21T20:54:33.437Z,21.25
2022-08-21T20:57:27.546Z,21.31
2022-08-21T21:00:01.321Z,21.35
2022-08-21T21:02:49.729Z,21.38
2022-08-21T21:05:29.982Z,21.29
2022-08-21T21:08:05.866Z,21.28
2022-08-21T21:10:48.289Z,21.26
2022-08-21T21:13:24.001Z,21.27
2022-08-21T21:15:54.781Z,21.43
2022-08-21T21:18:44.994Z,21.40
2022-08-21T21:24:27.659Z,21.14
2022-08-21T21:27:12.081Z,21.04
2022-08-21T21:29:57.295Z,20.97
2022-08-21T21:32:25.128Z,21.03
2022-08-21T21:34:51.851Z,21.06
2022-08-21T21:37:42.267Z,21.13
2022-08-21T21:40:11.891Z,21.16
2022-08-21T21:42:41.213Z,21.15
2022-08-21T21:45:13.449Z,20.92
2022-08-21T21:48:22.430Z,20.98
2022-08-21T21:51:00.767Z,21.09
2022-08-21T21:53:30.591Z,21.12
2022-08-21T21:56:14.396Z,21.10
2022-08-21T21:58:54.815Z,21.16
2022-08-21T22:01:46.696Z,21.16
2022-08-21T22:04:17.147Z,21.18
2022-08-21T22:06:59.138Z,21.17
2022-08-21T22:09:44.282Z,21.15
2022-08-21T22:12:49.882Z,21.08
2022-08-21T22:15:27.804Z,21.11
2022-08-21T22:18:10.442Z,21.19
2022-08-21T22:20:50.729Z,21.15
2022-08-21T22:23:21.575Z,21.17
2022-08-21T22:25:52.266Z,21.18
2022-08-21T22:31:21.020Z,21.24
2022-08-21T22:34:03.055Z,21.10
2022-08-21T22:36:34.155Z,21.02
2022-08-21T22:39:00.828Z,21.19
2022-08-21T22:41:31.255Z,21.06
2022-08-21T22:44:06.162Z,20.88
2022-08-21T22:46:37.197Z,20.85
2022-08-21T22:49:38.437Z,20.85
2022-08-21T22:52:18.080Z,20.70
2022-08-21T22:54:45.392Z,20.78
2022-08-21T22:57:31.532Z,20.83
2022-08-21T23:00:34.077Z,20.86
2022-08-21T23:03:03.540Z,20.90
2022-08-21T23:05:30.657Z,20.90
2022-08-21T23:08:14.398Z,21.05
2022-08-21T23:10:56.491Z,20.99
2022-08-21T23:13:23.075Z,21.04
2022-08-21T23:16:20.759Z,21.03
2022-08-21T23:19:11.450Z,21.04
2022-08-21T23:21:59.722Z,21.03
2022-08-21T23:27:42.459Z,21.10
2022-08-21T23:30:15.340Z,21.15
2022-08-21T23:33:09.672Z,21.15
2022-08-21T23:36:04.937Z,21.15
2022-08-21T23:39:02.587Z,21.19
2022-08-21T23:42:02.434Z,21.26
2022-08-21T23:44:55.068Z,21.28
2022-08-21T23:47:32.227Z,21.21
2022-08-21T23:53:08.867Z,21.24
2022-08-21T23:56:18.101Z,21.24
2022-08-21T23:58:58.739Z,21.26
